Time;durP1;ratioP1;P1;durP2;ratioP2;P2;SDS_P1;SDS_P2;PMS_P1;PMS_P2;Temp;Humidity;BMP_temperature;BMP_pressure;BME280_temperature;BME280_humidity;BME280_pressure;Samples;Min_cycle;Max_cycle;Signal;HPM_P1;HPM_P2
2021/01/31 00:00:34;;;;;;;8.10;4.73;;;;;;;-10.04;100.00;99896.53;5027692;28;20304;-91
2021/01/31 00:03:05;;;;;;;10.17;5.00;;;;;;;-10.10;100.00;99896.22;5032850;28;20312;-94
2021/01/31 00:05:32;;;;;;;7.40;4.97;;;;;;;-10.17;100.00;99901.88;5033601;28;20287;-93
2021/01/31 00:08:01;;;;;;;10.23;5.00;;;;;;;-10.26;100.00;99909.94;5039327;28;20364;-93
2021/01/31 00:10:30;;;;;;;11.40;5.50;;;;;;;-10.32;100.00;99906.25;5034225;28;20309;-92
2021/01/31 00:13:00;;;;;;;9.67;5.17;;;;;;;-10.37;100.00;99911.09;5038639;28;20284;-92
2021/01/31 00:15:30;;;;;;;12.47;5.67;;;;;;;-10.36;100.00;99906.88;5039176;28;20371;-92
2021/01/31 00:17:59;;;;;;;11.83;6.80;;;;;;;-10.34;100.00;99910.38;5041053;28;20330;-92
2021/01/31 00:20:28;;;;;;;9.33;5.70;;;;;;;-10.41;100.00;99900.66;5041557;28;20358;-92
2021/01/31 00:22:57;;;;;;;7.87;4.73;;;;;;;-10.48;100.00;99904.59;5031842;28;20359;-93
2021/01/31 00:25:24;;;;;;;9.53;5.00;;;;;;;-10.49;100.00;99905.38;5037513;28;20367;-93
2021/01/31 00:27:50;;;;;;;10.40;5.10;;;;;;;-10.53;100.00;99903.47;5039589;28;20432;-93
2021/01/31 00:30:27;;;;;;;6.37;4.47;;;;;;;-10.56;100.00;99910.97;5060927;23;20924;-70
2021/01/31 00:32:54;;;;;;;9.57;4.67;;;;;;;-10.63;100.00;99914.88;5068238;28;20642;-70
2021/01/31 00:35:23;;;;;;;8.83;4.53;;;;;;;-10.71;100.00;99911.06;5052637;28;20869;-70
2021/01/31 00:37:49;;;;;;;8.20;4.50;;;;;;;-10.77;100.00;99915.84;5046313;28;20807;-71
2021/01/31 00:40:16;;;;;;;8.60;4.70;;;;;;;-10.83;100.00;99915.53;5046920;28;20291;-70
2021/01/31 00:42:42;;;;;;;8.30;4.43;;;;;;;-10.85;100.00;99912.88;5046922;28;20365;-71
2021/01/31 00:45:11;;;;;;;10.10;4.07;;;;;;;-10.86;100.00;99913.69;5047156;28;20300;-70
2021/01/31 00:47:37;;;;;;;6.53;4.53;;;;;;;-10.89;100.00;99920.31;5058486;28;20287;-71
2021/01/31 00:50:04;;;;;;;7.83;4.37;;;;;;;-10.86;100.00;99928.13;5042900;28;20815;-71
2021/01/31 00:52:30;;;;;;;8.83;4.63;;;;;;;-10.85;100.00;99924.75;5042559;28;20283;-70
2021/01/31 00:54:56;;;;;;;6.60;3.97;;;;;;;-10.93;100.00;99924.41;5046884;28;21061;-70
2021/01/31 00:57:22;;;;;;;7.77;3.80;;;;;;;-10.97;100.00;99925.00;5041014;28;20295;-71
2021/01/31 00:59:48;;;;;;;6.67;3.80;;;;;;;-10.99;100.00;99928.28;5044092;28;20288;-70
2021/01/31 01:02:17;;;;;;;7.70;3.90;;;;;;;-10.93;100.00;99926.94;5047604;28;20350;-71
2021/01/31 01:04:44;;;;;;;5.57;3.73;;;;;;;-10.94;100.00;99926.84;5047061;28;20319;-71
2021/01/31 01:07:11;;;;;;;6.47;3.70;;;;;;;-10.95;100.00;99919.97;5047042;28;20794;-71
2021/01/31 01:09:37;;;;;;;7.87;4.13;;;;;;;-11.01;100.00;99925.66;5048204;28;20287;-71
2021/01/31 01:12:04;;;;;;;7.90;3.60;;;;;;;-11.02;100.00;99928.97;5046804;28;20352;-70
2021/01/31 01:14:31;;;;;;;6.47;3.80;;;;;;;-11.07;100.00;99926.19;5046552;28;20298;-71
2021/01/31 01:17:01;;;;;;;6.70;3.83;;;;;;;-11.09;100.00;99911.63;5046576;28;20291;-70
2021/01/31 01:19:27;;;;;;;7.00;3.40;;;;;;;-11.10;100.00;99913.31;5040596;28;20284;-70
2021/01/31 01:21:53;;;;;;;6.20;3.43;;;;;;;-11.19;100.00;99915.34;5044645;28;20330;-70
2021/01/31 01:24:20;;;;;;;5.13;3.60;;;;;;;-11.23;100.00;99915.09;5046310;28;20287;-71
2021/01/31 01:26:47;;;;;;;7.07;4.50;;;;;;;-11.24;100.00;99918.44;5046202;28;20319;-70
2021/01/31 01:29:13;;;;;;;5.67;3.37;;;;;;;-11.24;100.00;99919.31;5049360;28;20287;-71
2021/01/31 01:31:39;;;;;;;5.17;3.50;;;;;;;-11.23;100.00;99908.31;5044247;28;20291;-70
2021/01/31 01:34:06;;;;;;;9.53;4.40;;;;;;;-11.22;100.00;99915.19;5046812;28;20291;-70
2021/01/31 01:36:32;;;;;;;6.00;3.27;;;;;;;-11.22;100.00;99912.63;5028583;28;20295;-71
2021/01/31 01:38:59;;;;;;;6.73;3.87;;;;;;;-11.24;100.00;99911.69;5044792;28;20295;-71
2021/01/31 01:41:26;;;;;;;7.13;3.13;;;;;;;-11.28;100.00;99906.31;5045230;28;20299;-71
2021/01/31 01:43:53;;;;;;;7.30;3.83;;;;;;;-11.36;100.00;99916.09;5029273;28;20637;-71
2021/01/31 01:46:19;;;;;;;7.13;4.07;;;;;;;-11.39;100.00;99909.16;5045763;28;20279;-70
2021/01/31 01:48:46;;;;;;;8.50;3.90;;;;;;;-11.41;100.00;99909.91;5046049;28;20302;-71
2021/01/31 01:51:15;;;;;;;5.53;3.23;;;;;;;-11.43;100.00;99909.81;5045289;28;20333;-71
2021/01/31 01:53:42;;;;;;;6.90;3.30;;;;;;;-11.41;100.00;99912.44;5045226;28;20284;-71
2021/01/31 01:56:16;;;;;;;5.87;2.93;;;;;;;-11.44;100.00;99918.22;5044669;28;21038;-71
2021/01/31 01:58:43;;;;;;;4.80;2.83;;;;;;;-11.43;100.00;99924.25;5045403;28;20283;-71
2021/01/31 02:01:09;;;;;;;6.80;3.70;;;;;;;-11.49;100.00;99921.34;5045691;28;20319;-71
2021/01/31 02:03:40;;;;;;;6.77;3.57;;;;;;;-11.54;100.00;99922.75;5045570;28;20341;-71
2021/01/31 02:06:22;;;;;;;8.83;3.57;;;;;;;-11.56;100.00;99921.78;5044429;28;20323;-70
2021/01/31 02:08:49;;;;;;;6.77;3.17;;;;;;;-11.59;100.00;99925.06;5043380;28;20291;-70
2021/01/31 02:11:18;;;;;;;5.53;2.83;;;;;;;-11.60;100.00;99923.31;5044883;28;20849;-71
2021/01/31 02:13:50;;;;;;;6.10;3.03;;;;;;;-11.58;100.00;99931.91;5024999;28;20288;-71
2021/01/31 02:16:26;;;;;;;7.30;3.30;;;;;;;-11.56;100.00;99926.88;5043929;28;20726;-71
2021/01/31 02:19:20;;;;;;;5.13;3.30;;;;;;;-11.55;100.00;99921.88;5045207;28;20288;-70
2021/01/31 02:22:08;;;;;;;4.20;2.42;;;;;;;-11.55;100.00;99921.00;5044531;28;20295;-70
2021/01/31 02:24:59;;;;;;;5.73;3.27;;;;;;;-11.58;100.00;99921.72;5040510;28;20040;-70
2021/01/31 02:27:55;;;;;;;6.37;3.23;;;;;;;-11.61;100.00;99921.53;5048199;28;20287;-71
2021/01/31 02:30:40;;;;;;;6.00;3.20;;;;;;;-11.66;100.00;99917.88;5051539;28;20698;-71
2021/01/31 02:33:20;;;;;;;7.17;3.23;;;;;;;-11.70;100.00;99921.91;5045002;28;20377;-71
2021/01/31 02:35:48;;;;;;;5.73;3.13;;;;;;;-11.77;100.00;99930.03;5048891;28;20295;-71
2021/01/31 02:38:31;;;;;;;5.77;3.40;;;;;;;-11.80;100.00;99924.75;5049199;28;20291;-71
2021/01/31 02:41:05;;;;;;;4.90;2.70;;;;;;;-11.80;100.00;99922.22;5034039;28;20283;-71
2021/01/31 02:43:44;;;;;;;8.75;3.45;;;;;;;-11.81;100.00;99919.59;5047706;28;20292;-71
2021/01/31 02:46:25;;;;;;;7.07;3.10;;;;;;;-11.84;100.00;99916.88;5042288;28;20037;-71
2021/01/31 02:48:57;;;;;;;6.07;3.27;;;;;;;-11.88;100.00;99926.00;5044380;28;20287;-71
2021/01/31 02:51:38;;;;;;;4.20;2.80;;;;;;;-11.93;100.00;99923.22;5047885;28;20341;-71
2021/01/31 02:54:14;;;;;;;4.73;3.00;;;;;;;-11.95;100.00;99917.13;5047788;28;20291;-71
2021/01/31 02:56:45;;;;;;;6.57;3.20;;;;;;;-11.91;100.00;99912.25;5047361;28;20287;-71
2021/01/31 02:59:18;;;;;;;5.70;3.30;;;;;;;-11.91;100.00;99915.66;5039611;28;20527;-72
2021/01/31 03:01:48;;;;;;;5.43;3.23;;;;;;;-11.91;100.00;99909.69;5047439;28;20323;-71
2021/01/31 03:04:17;;;;;;;6.50;3.50;;;;;;;-11.93;100.00;99901.97;5030879;28;20322;-71
2021/01/31 03:06:47;;;;;;;5.63;3.20;;;;;;;-11.95;100.00;99894.22;5047905;28;20996;-71
2021/01/31 03:09:33;;;;;;;4.93;3.20;;;;;;;-11.97;100.00;99908.53;5046036;28;20287;-71
2021/01/31 03:12:04;;;;;;;5.63;3.17;;;;;;;-12.04;100.00;99911.53;5035188;28;20319;-71
2021/01/31 03:14:40;;;;;;;6.20;3.60;;;;;;;-12.06;100.00;99913.13;5045602;28;20294;-71
2021/01/31 03:17:12;;;;;;;6.30;2.67;;;;;;;-12.07;100.00;99910.50;5040259;28;20292;-71
2021/01/31 03:19:49;;;;;;;6.90;2.93;;;;;;;-12.08;100.00;99916.38;5062428;28;20298;-69
2021/01/31 03:22:20;;;;;;;7.10;3.53;;;;;;;-12.07;100.00;99911.38;5047082;28;20300;-69
2021/01/31 03:24:54;;;;;;;5.67;2.83;;;;;;;-11.99;100.00;99906.72;5046716;28;20641;-68
2021/01/31 03:27:35;;;;;;;6.00;3.30;;;;;;;-12.00;100.00;99912.59;5047328;28;20288;-69
2021/01/31 03:30:02;;;;;;;7.30;3.93;;;;;;;-12.01;100.00;99905.75;5041842;28;20992;-69
2021/01/31 03:32:36;;;;;;;5.23;3.10;;;;;;;-12.07;100.00;99913.91;5045218;28;20352;-69
2021/01/31 03:35:08;;;;;;;3.92;2.65;;;;;;;-12.13;100.00;99903.38;5040360;28;20296;-70
2021/01/31 03:37:41;;;;;;;7.80;3.33;;;;;;;-12.11;100.00;99909.41;5047618;28;20053;-71
2021/01/31 03:40:08;;;;;;;5.07;2.70;;;;;;;-12.11;100.00;99906.88;5048802;28;20525;-71
2021/01/31 03:42:35;;;;;;;4.57;2.60;;;;;;;-12.14;100.00;99911.81;5047350;28;20764;-69
2021/01/31 03:45:06;;;;;;;4.63;3.03;;;;;;;-12.14;100.00;99919.44;5047393;28;20340;-69
2021/01/31 03:47:43;;;;;;;4.60;2.90;;;;;;;-12.17;100.00;99914.19;5047696;28;20937;-69
2021/01/31 03:50:09;;;;;;;6.23;3.00;;;;;;;-12.21;100.00;99918.19;5027945;28;20306;-70
2021/01/31 03:52:36;;;;;;;6.83;3.57;;;;;;;-12.20;100.00;99914.00;5043902;28;20287;-69
2021/01/31 03:55:03;;;;;;;6.40;3.23;;;;;;;-12.21;100.00;99925.84;5039751;28;20381;-70
2021/01/31 03:57:39;;;;;;;6.33;3.33;;;;;;;-12.17;100.00;99916.72;5046981;28;20656;-69
2021/01/31 04:00:20;;;;;;;6.63;3.20;;;;;;;-12.16;100.00;99912.50;5042420;28;20288;-69
2021/01/31 04:02:51;;;;;;;5.30;3.00;;;;;;;-12.17;100.00;99915.84;5046665;28;20295;-66
2021/01/31 04:05:18;;;;;;;5.47;3.00;;;;;;;-12.19;100.00;99918.28;5041630;28;20341;-66
2021/01/31 04:07:45;;;;;;;6.07;3.63;;;;;;;-12.20;100.00;99911.44;5044684;28;20287;-68
2021/01/31 04:10:13;;;;;;;5.40;2.93;;;;;;;-12.17;100.00;99916.72;5046686;28;20291;-68
2021/01/31 04:12:44;;;;;;;6.43;3.40;;;;;;;-12.17;100.00;99916.72;5040321;28;20339;-68
2021/01/31 04:15:24;;;;;;;5.20;3.43;;;;;;;-12.22;100.00;99911.38;5044418;28;20337;-68
2021/01/31 04:17:50;;;;;;;5.77;2.93;;;;;;;-12.26;100.00;99906.03;5044396;28;20319;-68
2021/01/31 04:20:17;;;;;;;6.17;2.80;;;;;;;-12.25;100.00;99907.78;5040969;28;20295;-67
2021/01/31 04:22:44;;;;;;;5.43;3.13;;;;;;;-12.23;100.00;99912.16;5043917;28;20303;-70
2021/01/31 04:25:10;;;;;;;6.50;3.47;;;;;;;-12.22;100.00;99911.38;5038073;28;20284;-71
2021/01/31 04:27:36;;;;;;;6.13;3.33;;;;;;;-12.25;100.00;99903.56;5044388;28;20287;-70
2021/01/31 04:30:05;;;;;;;6.00;3.40;;;;;;;-12.27;100.00;99902.59;5046285;28;20319;-70
2021/01/31 04:32:31;;;;;;;5.30;2.80;;;;;;;-12.27;100.00;99896.63;5043576;28;20279;-71
2021/01/31 04:34:57;;;;;;;7.10;3.27;;;;;;;-12.27;100.00;99897.50;5041599;28;20958;-71
2021/01/31 04:37:23;;;;;;;6.50;3.13;;;;;;;-12.28;100.00;99898.28;5040917;28;20337;-70
2021/01/31 04:39:50;;;;;;;8.57;3.50;;;;;;;-12.24;100.00;99891.72;5042951;28;20345;-71
2021/01/31 04:42:17;;;;;;;6.43;3.50;;;;;;;-12.22;100.00;99891.00;5045956;28;20287;-70
2021/01/31 04:44:43;;;;;;;7.00;3.67;;;;;;;-12.17;100.00;99888.72;5043106;28;20287;-70
2021/01/31 04:47:23;;;;;;;9.27;4.20;;;;;;;-12.15;100.00;99884.59;5039095;28;20350;-71
2021/01/31 04:50:00;;;;;;;5.90;3.50;;;;;;;-12.16;100.00;99887.06;5045486;28;20334;-70
2021/01/31 04:52:49;;;;;;;6.20;3.73;;;;;;;-12.19;100.00;99887.75;5028530;28;20968;-71
2021/01/31 04:55:43;;;;;;;6.70;3.83;;;;;;;-12.19;100.00;99889.41;5044670;28;20376;-71
2021/01/31 04:58:20;;;;;;;6.23;3.63;;;;;;;-12.16;100.00;99893.03;5046089;28;20311;-71
2021/01/31 05:00:53;;;;;;;8.03;3.50;;;;;;;-12.14;100.00;99893.09;5044699;28;20299;-70
2021/01/31 05:03:20;;;;;;;6.20;3.30;;;;;;;-12.14;100.00;99888.00;5037859;28;20300;-70
2021/01/31 05:05:53;;;;;;;8.47;3.40;;;;;;;-12.14;100.00;99890.56;5038340;28;20083;-71
2021/01/31 05:08:25;;;;;;;6.40;3.05;;;;;;;-12.13;100.00;99888.09;5028867;28;20292;-71
2021/01/31 05:10:56;;;;;;;7.67;3.33;;;;;;;-12.12;100.00;99889.84;5047114;28;20080;-70
2021/01/31 05:13:37;;;;;;;7.30;3.60;;;;;;;-12.14;100.00;99893.97;5045668;28;20941;-71
2021/01/31 05:16:07;;;;;;;4.80;3.27;;;;;;;-12.14;100.00;99900.75;5044331;28;20291;-71
2021/01/31 05:18:36;;;;;;;7.67;4.33;;;;;;;-12.18;100.00;99904.78;5045618;28;20286;-71
2021/01/31 05:21:06;;;;;;;6.93;3.47;;;;;;;-12.16;100.00;99904.88;5046032;28;20295;-71
2021/01/31 05:23:39;;;;;;;7.87;3.30;;;;;;;-12.16;100.00;99894.69;5045299;28;20313;-70
2021/01/31 05:26:06;;;;;;;7.17;3.60;;;;;;;-12.15;100.00;99899.00;5045558;28;20283;-70
2021/01/31 05:28:34;;;;;;;6.77;4.03;;;;;;;-12.13;100.00;99900.81;5028315;28;20287;-71
2021/01/31 05:31:01;;;;;;;8.00;3.87;;;;;;;-12.14;100.00;99898.19;5045048;28;20299;-70
2021/01/31 05:33:27;;;;;;;8.87;3.93;;;;;;;-12.15;100.00;99896.44;5045180;28;20336;-71
2021/01/31 05:36:08;;;;;;;7.43;4.10;;;;;;;-12.14;100.00;99893.97;5045261;28;20323;-71
2021/01/31 05:38:39;;;;;;;8.00;3.57;;;;;;;-12.14;100.00;99893.09;5046571;28;20683;-71
2021/01/31 05:41:35;;;;;;;8.00;4.33;;;;;;;-12.11;100.00;99899.22;5045567;28;20295;-71
2021/01/31 05:44:14;;;;;;;9.47;4.27;;;;;;;-12.10;100.00;99901.03;5043681;28;20303;-70
2021/01/31 05:46:44;;;;;;;8.60;4.20;;;;;;;-12.07;100.00;99897.75;5046662;28;20295;-70
2021/01/31 05:49:28;;;;;;;8.23;4.10;;;;;;;-12.02;100.00;99898.88;5045274;28;20295;-70
2021/01/31 05:51:56;;;;;;;9.13;4.27;;;;;;;-11.93;100.00;99907.94;5045755;28;20287;-71
2021/01/31 05:54:27;;;;;;;8.27;4.37;;;;;;;-11.82;100.00;99902.56;5040061;28;20349;-71
2021/01/31 05:56:55;;;;;;;8.83;4.47;;;;;;;-11.75;100.00;99899.53;5045073;28;20349;-71
2021/01/31 05:59:22;;;;;;;9.70;4.97;;;;;;;-11.70;100.00;99906.63;5045325;28;21026;-70
2021/01/31 06:01:51;;;;;;;10.63;4.20;;;;;;;-11.60;100.00;99913.13;5049054;28;20850;-71
2021/01/31 06:04:18;;;;;;;8.70;4.47;;;;;;;-11.58;100.00;99924.25;5038849;28;20315;-70
2021/01/31 06:06:45;;;;;;;11.50;4.67;;;;;;;-11.55;100.00;99921.00;5049384;28;20851;-71
2021/01/31 06:09:18;;;;;;;10.43;5.10;;;;;;;-11.54;100.00;99920.19;5049293;28;20291;-71
2021/01/31 06:11:45;;;;;;;7.37;4.00;;;;;;;-11.51;100.00;99928.03;5050980;28;20288;-68
2021/01/31 06:14:14;;;;;;;10.30;4.40;;;;;;;-11.43;100.00;99922.56;5048465;28;20400;-71
2021/01/31 06:16:42;;;;;;;11.40;5.07;;;;;;;-11.36;100.00;99922.06;5050169;28;20291;-70
2021/01/31 06:19:19;;;;;;;10.93;5.20;;;;;;;-11.33;100.00;99923.94;5048069;28;20798;-70
2021/01/31 06:21:46;;;;;;;10.47;5.00;;;;;;;-11.33;100.00;99923.06;5049787;28;20317;-71
2021/01/31 06:24:34;;;;;;;9.57;5.07;;;;;;;-11.33;100.00;99929.03;5048034;28;20291;-70
2021/01/31 06:27:01;;;;;;;8.13;4.27;;;;;;;-11.36;100.00;99922.06;5049218;28;20295;-70
2021/01/31 06:29:44;;;;;;;11.13;4.77;;;;;;;-11.37;100.00;99932.19;5049141;28;20306;-70
2021/01/31 06:32:24;;;;;;;8.97;5.13;;;;;;;-11.36;100.00;99942.47;5071358;23;20311;-92
2021/01/31 06:34:58;;;;;;;9.77;5.10;;;;;;;-11.40;100.00;99935.47;5016905;28;20277;-94
2021/01/31 06:38:12;;;;;;;11.60;4.97;;;;;;;-11.44;100.00;99940.28;5038871;28;20277;-92
2021/01/31 06:41:04;;;;;;;9.40;5.17;;;;;;;-11.42;100.00;99944.72;5034464;28;20291;-92
2021/01/31 06:43:40;;;;;;;10.07;4.57;;;;;;;-11.44;100.00;99945.38;5045138;28;20364;-93
2021/01/31 06:46:25;;;;;;;8.73;4.60;;;;;;;-11.48;100.00;99941.81;5020991;28;20284;-94
2021/01/31 06:49:09;;;;;;;9.50;4.28;;;;;;;-11.47;100.00;99938.47;5019165;28;20273;-92
2021/01/31 06:51:42;;;;;;;11.03;4.67;;;;;;;-11.45;100.00;99936.88;5007727;28;20030;-93
2021/01/31 06:54:25;;;;;;;10.27;4.53;;;;;;;-11.45;100.00;99930.91;5003960;28;20289;-93
2021/01/31 06:57:08;;;;;;;7.87;3.60;;;;;;;-11.42;100.00;99943.81;5001992;28;20281;-92
2021/01/31 07:00:07;;;;;;;8.93;4.27;;;;;;;-11.37;100.00;99944.94;5004507;28;20284;-93
2021/01/31 07:02:55;;;;;;;6.93;3.93;;;;;;;-11.33;100.00;99948.56;5002330;28;20302;-92
2021/01/31 07:05:33;;;;;;;9.40;4.77;;;;;;;-11.33;100.00;99944.31;5017525;28;20315;-92
2021/01/31 07:08:21;;;;;;;7.80;4.03;;;;;;;-11.31;100.00;99945.28;5003142;28;20384;-92
2021/01/31 07:11:09;;;;;;;7.30;4.27;;;;;;;-11.27;100.00;99946.31;5013981;28;20282;-92
2021/01/31 07:13:58;;;;;;;10.23;4.60;;;;;;;-11.24;100.00;99954.16;4998754;28;20296;-92
2021/01/31 07:17:06;;;;;;;6.53;4.33;;;;;;;-11.20;100.00;99953.50;5002900;28;20316;-93
2021/01/31 07:19:40;;;;;;;8.23;4.40;;;;;;;-11.18;100.00;99950.25;5034411;28;20301;-94
2021/01/31 07:22:15;;;;;;;6.72;4.20;;;;;;;-11.14;100.00;99962.38;5000382;28;20266;-92
2021/01/31 07:24:51;;;;;;;11.67;4.90;;;;;;;-11.11;100.00;99951.44;5002743;28;20030;-94
2021/01/31 07:27:36;;;;;;;7.83;4.60;;;;;;;-11.08;100.00;99962.72;5014739;28;20329;-93
2021/01/31 07:30:12;;;;;;;9.67;4.30;;;;;;;-11.02;100.00;99969.78;5018786;28;20291;-94
2021/01/31 07:32:50;;;;;;;7.10;4.87;;;;;;;-10.96;100.00;99974.34;5015451;28;20615;-93
2021/01/31 07:35:21;;;;;;;8.13;4.30;;;;;;;-10.90;100.00;99979.78;5000138;28;20457;-93
2021/01/31 07:37:50;;;;;;;9.60;4.70;;;;;;;-10.86;100.00;99979.16;5001181;28;20320;-92
2021/01/31 07:40:25;;;;;;;10.23;4.27;;;;;;;-10.79;100.00;99971.03;5005970;28;20396;-93
2021/01/31 07:42:55;;;;;;;9.27;5.03;;;;;;;-10.72;100.00;99978.22;5015826;28;20293;-93
2021/01/31 07:45:24;;;;;;;9.90;5.23;;;;;;;-10.61;100.00;99966.00;5020520;28;20289;-94
2021/01/31 07:48:29;;;;;;;10.43;4.57;;;;;;;-10.45;100.00;99970.22;5001900;28;21357;-94
2021/01/31 07:50:55;;;;;;;12.68;6.88;;;;;;;-10.25;100.00;99978.13;5034878;28;20285;-93
2021/01/31 07:53:29;;;;;;;11.47;6.63;;;;;;;-10.09;100.00;99969.50;4999821;28;20036;-93
2021/01/31 07:55:55;;;;;;;12.80;5.95;;;;;;;-9.95;100.00;99973.63;5016369;28;20289;-91
2021/01/31 07:58:30;;;;;;;10.70;5.97;;;;;;;-9.74;100.00;99978.94;5002904;28;20037;-93
2021/01/31 08:00:56;;;;;;;13.83;6.90;;;;;;;-9.58;100.00;99979.66;5019397;28;20773;-93
2021/01/31 08:03:38;;;;;;;14.33;6.93;;;;;;;-9.44;100.00;99976.97;5016523;28;20299;-92
2021/01/31 08:06:17;;;;;;;10.83;6.83;;;;;;;-9.26;100.00;99973.53;4996135;28;20296;-92
2021/01/31 08:08:52;;;;;;;12.60;6.90;;;;;;;-9.05;100.00;99973.66;5023658;28;20280;-92
2021/01/31 08:11:18;;;;;;;15.50;6.60;;;;;;;-8.77;100.00;99984.34;5011820;28;20288;-94
2021/01/31 08:13:49;;;;;;;16.20;7.57;;;;;;;-8.53;100.00;99982.00;5017375;28;20033;-93
2021/01/31 08:16:40;;;;;;;22.07;9.87;;;;;;;-7.41;100.00;99979.88;5002494;28;20356;-93
2021/01/31 08:19:10;;;;;;;28.47;12.80;;;;;;;-5.70;100.00;99973.31;5022437;28;20301;-93
2021/01/31 08:21:56;;;;;;;18.30;9.33;;;;;;;-5.04;100.00;99983.13;5019235;28;20296;-93
2021/01/31 08:24:57;;;;;;;18.47;8.53;;;;;;;-5.08;100.00;99983.88;5050644;28;20102;-94
2021/01/31 08:27:38;;;;;;;17.10;10.30;;;;;;;-5.61;100.00;99971.03;5023728;28;20025;-93
2021/01/31 08:30:27;;;;;;;17.90;10.10;;;;;;;-6.03;100.00;99973.94;5049106;28;20026;-93
2021/01/31 08:33:02;;;;;;;13.20;8.03;;;;;;;-6.21;100.00;99972.44;5025996;28;20034;-94
2021/01/31 08:35:43;;;;;;;18.02;8.77;;;;;;;-6.37;100.00;99969.31;5016507;28;20042;-94
2021/01/31 08:38:35;;;;;;;11.90;7.30;;;;;;;-6.32;100.00;99965.19;5034404;28;20069;-93
2021/01/31 08:41:04;;;;;;;15.63;7.97;;;;;;;-6.22;100.00;99965.53;5014505;28;20021;-92
2021/01/31 08:43:32;;;;;;;17.40;8.43;;;;;;;-6.13;100.00;99971.88;5010565;28;20025;-93
2021/01/31 08:46:10;;;;;;;13.47;6.93;;;;;;;-5.92;100.00;99974.31;5002092;28;20102;-94
2021/01/31 08:48:41;;;;;;;16.87;8.10;;;;;;;-5.77;100.00;99971.34;5017275;28;20042;-95
2021/01/31 08:51:28;;;;;;;19.47;9.30;;;;;;;-5.62;100.00;99973.56;5034119;28;20030;-94
2021/01/31 08:54:13;;;;;;;17.67;9.30;;;;;;;-5.39;100.00;99967.44;5018335;28;20030;-95
2021/01/31 08:56:40;;;;;;;;;;;;;;;-5.14;100.00;99977.69;5034504;22;20049;-69
2021/01/31 08:59:10;;;;;;;10.60;6.07;;;;;;;-4.93;100.00;99981.78;5028308;28;19968;-69
2021/01/31 09:01:42;;;;;;;17.13;9.00;;;;;;;-4.79;100.00;99980.50;5045719;28;20040;-69
2021/01/31 09:04:13;;;;;;;25.43;12.73;;;;;;;-4.55;100.00;99978.63;5044969;28;20056;-69
2021/01/31 09:06:42;;;;;;;11.47;6.10;;;;;;;-4.06;100.00;99982.56;5034667;28;20036;-69
2021/01/31 09:09:20;;;;;;;10.40;5.80;;;;;;;-3.84;96.98;99981.44;5036605;28;20091;-69
2021/01/31 09:11:54;;;;;;;13.27;8.03;;;;;;;-3.61;99.15;99973.44;5044486;28;20041;-69
2021/01/31 09:14:26;;;;;;;14.93;7.32;;;;;;;-2.02;100.00;99977.81;5037020;28;20399;-68
2021/01/31 09:17:07;;;;;;;15.00;7.20;;;;;;;-0.11;95.17;99968.63;5044700;28;20517;-69
2021/01/31 09:19:34;;;;;;;16.53;8.03;;;;;;;1.65;80.75;99973.50;5044330;28;20481;-69
2021/01/31 09:22:13;;;;;;;15.33;9.20;;;;;;;2.85;69.19;99971.16;5045590;28;20082;-66
2021/01/31 09:24:41;;;;;;;11.20;6.40;;;;;;;2.70;62.09;99975.53;5046064;28;20032;-67
2021/01/31 09:27:08;;;;;;;11.10;6.70;;;;;;;4.20;62.38;99972.50;5045186;28;20057;-68
2021/01/31 09:29:34;;;;;;;12.47;8.20;;;;;;;5.29;57.64;99973.38;5061440;28;20498;-67
2021/01/31 09:32:12;;;;;;;9.93;6.63;;;;;;;5.63;55.02;99970.38;5043907;28;20052;-66
2021/01/31 09:34:39;;;;;;;9.07;5.93;;;;;;;6.05;53.87;99973.41;5042783;28;20141;-68
2021/01/31 09:37:21;;;;;;;7.73;5.67;;;;;;;6.65;50.79;99982.19;5042674;28;20037;-67
2021/01/31 09:39:49;;;;;;;8.23;6.28;;;;;;;6.58;50.21;99977.91;5039316;28;20553;-68
2021/01/31 09:42:15;;;;;;;7.97;5.20;;;;;;;7.21;50.65;99985.63;5061079;28;20056;-69
2021/01/31 09:44:48;;;;;;;7.35;4.97;;;;;;;8.80;50.09;99968.31;5046708;28;20041;-68
2021/01/31 09:47:19;;;;;;;6.93;5.07;;;;;;;9.36;44.20;99971.28;5057802;28;20071;-68
2021/01/31 09:49:50;;;;;;;7.70;5.20;;;;;;;9.27;43.57;99965.34;5044606;28;20040;-67
2021/01/31 09:52:16;;;;;;;6.90;4.97;;;;;;;9.86;41.91;99967.25;5043778;28;20029;-67
2021/01/31 09:54:42;;;;;;;6.93;4.85;;;;;;;9.23;44.64;99966.31;5042531;28;20049;-68
2021/01/31 09:57:23;;;;;;;7.10;5.07;;;;;;;10.27;43.60;99967.88;5042993;28;20083;-68
2021/01/31 10:00:06;;;;;;;7.25;5.93;;;;;;;9.96;40.78;99959.94;5038751;28;20089;-68
2021/01/31 10:02:34;;;;;;;6.82;4.63;;;;;;;10.93;41.29;99967.50;5042685;28;20114;-68
2021/01/31 10:05:01;;;;;;;7.80;5.78;;;;;;;10.63;39.03;99971.13;5049646;28;20041;-69
2021/01/31 10:07:35;;;;;;;7.72;5.57;;;;;;;11.02;42.06;99963.69;5045553;28;20099;-68
2021/01/31 10:10:24;;;;;;;7.90;5.38;;;;;;;11.48;35.95;99970.91;5038439;28;20495;-67
2021/01/31 10:13:10;;;;;;;9.13;7.13;;;;;;;8.50;39.45;99962.03;5023884;28;20049;-68
2021/01/31 10:15:38;;;;;;;8.77;5.47;;;;;;;8.08;43.99;99976.06;5047241;28;20049;-68
2021/01/31 10:18:10;;;;;;;7.97;6.03;;;;;;;7.39;43.88;99960.78;5023213;28;20042;-68
2021/01/31 10:20:38;;;;;;;7.70;6.07;;;;;;;6.85;45.19;99971.38;5023949;28;20068;-68
2021/01/31 10:23:07;;;;;;;7.70;5.75;;;;;;;6.83;45.33;99969.66;5023843;28;20042;-67
2021/01/31 10:25:33;;;;;;;7.18;5.65;;;;;;;6.66;45.49;99973.41;5035519;28;20645;-69
2021/01/31 10:28:00;;;;;;;9.05;6.68;;;;;;;6.64;45.79;99969.97;5046387;28;20068;-68
2021/01/31 10:30:35;;;;;;;9.60;6.00;;;;;;;5.97;49.06;99970.00;5046682;28;20071;-67
2021/01/31 10:33:02;;;;;;;8.65;6.28;;;;;;;6.58;47.65;99966.56;5046654;28;20033;-68
2021/01/31 10:35:33;;;;;;;7.13;5.30;;;;;;;6.26;46.16;99969.66;5042761;28;20073;-68
2021/01/31 10:38:31;;;;;;;6.13;4.70;;;;;;;6.18;47.11;99969.75;5044786;28;20041;-68
2021/01/31 10:40:58;;;;;;;10.40;6.13;;;;;;;4.68;51.40;99967.81;5062241;28;20575;-68
2021/01/31 10:43:25;;;;;;;8.52;5.95;;;;;;;4.44;53.29;99967.09;5045932;28;20036;-68
2021/01/31 10:45:52;;;;;;;8.43;5.80;;;;;;;5.27;51.81;99964.66;5029519;28;20044;-68
2021/01/31 10:48:18;;;;;;;9.30;5.68;;;;;;;5.90;48.70;99969.22;5049141;28;20044;-68
2021/01/31 10:50:45;;;;;;;6.35;4.80;;;;;;;6.05;48.50;99974.28;5048793;28;20052;-68
2021/01/31 10:53:11;;;;;;;6.05;4.65;;;;;;;6.72;47.27;99962.81;5049875;28;20037;-68
2021/01/31 10:55:37;;;;;;;7.55;4.70;;;;;;;5.56;48.05;99967.00;5048642;28;20045;-68
2021/01/31 10:58:03;;;;;;;7.47;4.68;;;;;;;5.68;48.46;99965.13;5049895;28;20091;-69
2021/01/31 11:00:29;;;;;;;5.40;4.60;;;;;;;6.41;46.19;99964.19;5050030;28;20505;-68
2021/01/31 11:02:56;;;;;;;6.45;4.20;;;;;;;7.45;43.58;99967.69;5048747;28;20450;-68
2021/01/31 11:05:22;;;;;;;5.28;4.22;;;;;;;7.30;43.90;99958.31;5050251;28;20512;-68
2021/01/31 11:07:49;;;;;;;5.88;4.63;;;;;;;7.43;44.61;99962.47;5049250;28;20051;-68
2021/01/31 11:10:16;;;;;;;6.35;4.72;;;;;;;8.20;42.74;99967.03;5032001;28;20060;-68
2021/01/31 11:12:42;;;;;;;6.80;4.85;;;;;;;7.82;44.17;99959.97;5048607;28;20044;-68
2021/01/31 11:15:10;;;;;;;8.43;5.40;;;;;;;7.29;44.28;99956.59;5049730;28;20033;-68
2021/01/31 11:17:37;;;;;;;7.35;5.00;;;;;;;6.85;48.26;99960.84;5049491;28;20045;-68
2021/01/31 11:20:04;;;;;;;7.03;5.45;;;;;;;6.90;45.87;99950.28;5047450;28;20041;-68
2021/01/31 11:22:30;;;;;;;6.40;5.03;;;;;;;7.21;43.57;99947.97;5048058;28;20041;-68
2021/01/31 11:24:56;;;;;;;7.30;5.25;;;;;;;7.53;45.40;99950.88;5049917;28;20037;-68
2021/01/31 11:27:23;;;;;;;8.30;6.25;;;;;;;8.23;42.87;99947.66;5048167;28;20041;-68
2021/01/31 11:29:49;;;;;;;6.80;5.10;;;;;;;8.16;42.44;99941.69;5047996;28;20037;-68
2021/01/31 11:32:15;;;;;;;8.30;5.53;;;;;;;8.68;41.48;99944.00;5049226;28;20513;-68
2021/01/31 11:34:41;;;;;;;9.50;6.78;;;;;;;8.71;43.84;99940.44;5046861;28;20119;-68
2021/01/31 11:37:07;;;;;;;7.68;5.55;;;;;;;9.81;38.70;99948.06;5049198;28;20049;-68
2021/01/31 11:39:33;;;;;;;6.22;5.38;;;;;;;9.83;38.85;99938.31;5048503;28;20045;-69
2021/01/31 11:41:59;;;;;;;7.95;5.88;;;;;;;9.20;41.00;99950.59;5042503;28;20036;-69
2021/01/31 11:44:26;;;;;;;7.07;5.07;;;;;;;8.16;41.32;99945.19;5044775;28;20063;-68
2021/01/31 11:46:52;;;;;;;7.50;5.35;;;;;;;7.28;43.33;99955.72;5038562;28;20049;-68